createdAt,value
2023-03-23T15:58:39.901Z,40.03
2023-03-23T16:01:17.456Z,40.20
2023-03-23T16:03:51.998Z,39.83
2023-03-23T16:06:24.616Z,39.36
2023-03-23T16:08:55.866Z,40.77
2023-03-23T16:11:23.849Z,41.27
2023-03-23T16:13:50.644Z,40.27
2023-03-23T16:16:21.283Z,40.29
2023-03-23T16:18:47.776Z,40.10
2023-03-23T16:21:14.241Z,39.85
2023-03-23T16:23:41.322Z,39.33
2023-03-23T16:26:07.805Z,39.66
2023-03-23T16:28:34.682Z,40.21
2023-03-23T16:31:01.316Z,39.93
2023-03-23T16:33:27.859Z,40.26
2023-03-23T16:35:54.446Z,40.14
2023-03-23T16:38:21.048Z,40.26
2023-03-23T16:40:47.546Z,40.20
2023-03-23T16:43:14.168Z,40.19
2023-03-23T16:45:44.352Z,40.27
2023-03-23T16:48:12.355Z,40.30
2023-03-23T16:50:39.304Z,40.06
2023-03-23T16:53:08.106Z,40.16
2023-03-23T16:55:36.593Z,40.49
2023-03-23T16:58:16.385Z,40.70
2023-03-23T17:00:48.967Z,40.16
2023-03-23T17:03:16.826Z,40.66
2023-03-23T17:05:45.055Z,40.70
2023-03-23T17:08:12.079Z,40.82
2023-03-23T17:10:40.771Z,41.31
2023-03-23T17:13:07.793Z,41.73
2023-03-23T17:15:37.369Z,41.68
2023-03-23T17:18:04.486Z,42.30
2023-03-23T17:20:31.471Z,42.43
2023-03-23T17:22:59.611Z,42.50
2023-03-23T17:25:27.543Z,42.82
2023-03-23T17:27:54.223Z,42.47
2023-03-23T17:30:20.768Z,42.04
2023-03-23T17:32:47.915Z,42.58
2023-03-23T17:35:15.320Z,42.34
2023-03-23T17:37:43.477Z,42.54
2023-03-23T17:40:11.014Z,42.36
2023-03-23T17:42:38.482Z,42.63
2023-03-23T17:45:06.635Z,42.66
2023-03-23T17:47:33.553Z,42.54
2023-03-23T17:50:00.308Z,42.34
2023-03-23T17:52:38.267Z,42.48
2023-03-23T17:55:05.482Z,42.71
2023-03-23T17:57:32.225Z,42.36
2023-03-23T17:59:58.743Z,42.40
2023-03-23T18:02:25.406Z,42.52
2023-03-23T18:04:52.079Z,42.66
2023-03-23T18:07:23.319Z,42.63
2023-03-23T18:09:50.529Z,42.75
2023-03-23T18:12:17.771Z,42.63
2023-03-23T18:14:44.432Z,42.90
2023-03-23T18:17:11.030Z,43.12
2023-03-23T18:19:37.398Z,42.90
2023-03-23T18:22:03.767Z,43.14
2023-03-23T18:24:30.324Z,43.00
2023-03-23T18:26:57.036Z,42.99
2023-03-23T18:29:23.529Z,43.01
2023-03-23T18:31:50.317Z,43.45
2023-03-23T18:34:16.909Z,43.61
2023-03-23T18:36:43.333Z,43.55
2023-03-23T18:39:11.991Z,43.79
2023-03-23T18:41:38.749Z,43.51
2023-03-23T18:44:06.299Z,43.86
2023-03-23T18:46:32.853Z,44.01
2023-03-23T18:48:59.391Z,43.85
2023-03-23T18:51:26.165Z,43.72
2023-03-23T18:53:52.741Z,43.88
2023-03-23T18:56:19.428Z,43.81
2023-03-23T18:58:46.350Z,44.18
2023-03-23T19:01:16.182Z,44.02
2023-03-23T19:03:43.562Z,43.90
2023-03-23T19:06:15.253Z,44.13
2023-03-23T19:08:41.735Z,44.02
2023-03-23T19:11:11.904Z,44.12
2023-03-23T19:13:40.306Z,43.92
2023-03-23T19:16:11.331Z,44.18
2023-03-23T19:18:37.855Z,44.24
2023-03-23T19:23:33.827Z,44.08
2023-03-23T19:26:00.516Z,44.47
2023-03-23T19:30:58.787Z,44.18
2023-03-23T19:33:26.355Z,44.47
2023-03-23T19:36:05.898Z,44.42
2023-03-23T19:38:35.852Z,44.29
2023-03-23T19:41:03.901Z,43.81
2023-03-23T19:43:32.010Z,43.65
2023-03-23T19:45:58.476Z,43.94
2023-03-23T19:48:24.936Z,43.81
2023-03-23T19:50:53.045Z,43.94
2023-03-23T19:53:20.608Z,44.10
2023-03-23T19:55:47.461Z,43.92
2023-03-23T19:58:14.507Z,44.02
2023-03-23T20:00:41.194Z,43.76
2023-03-23T20:03:07.841Z,44.08
2023-03-23T20:05:35.705Z,43.81
2023-03-23T20:08:04.436Z,43.95
2023-03-23T20:10:34.593Z,43.98
2023-03-23T20:13:04.927Z,44.04
2023-03-23T20:15:32.108Z,43.84
2023-03-23T20:17:58.955Z,44.27
2023-03-23T20:20:26.443Z,43.84
2023-03-23T20:22:55.070Z,44.14
2023-03-23T20:25:23.114Z,43.93
2023-03-23T20:27:49.578Z,44.01
2023-03-23T20:30:17.010Z,43.95
2023-03-23T20:32:46.363Z,44.12
2023-03-23T20:35:14.595Z,43.95
2023-03-23T20:37:41.133Z,44.27
2023-03-23T20:40:14.603Z,44.09
2023-03-23T20:42:43.949Z,44.38
2023-03-23T20:45:12.758Z,44.33
2023-03-23T20:47:40.285Z,44.38
2023-03-23T20:50:08.709Z,44.35
2023-03-23T20:52:35.296Z,44.46
2023-03-23T20:55:02.405Z,44.08
2023-03-23T20:57:28.984Z,44.07
2023-03-23T20:59:55.803Z,44.31
2023-03-23T21:02:25.595Z,44.04
2023-03-23T21:04:52.790Z,43.97
2023-03-23T21:07:23.112Z,43.95
2023-03-23T21:09:49.723Z,44.28
2023-03-23T21:12:16.677Z,44.13
2023-03-23T21:14:44.830Z,44.32
2023-03-23T21:17:11.427Z,44.67
2023-03-23T21:19:38.198Z,44.49
2023-03-23T21:22:05.175Z,44.75
2023-03-23T21:24:32.077Z,45.26
2023-03-23T21:27:00.557Z,45.47
2023-03-23T21:29:27.989Z,45.32
2023-03-23T21:32:07.703Z,44.98
2023-03-23T21:34:35.989Z,44.48
2023-03-23T21:37:02.346Z,44.72
2023-03-23T21:39:28.955Z,44.36
2023-03-23T21:41:55.544Z,44.40
2023-03-23T21:44:22.137Z,44.21
2023-03-23T21:46:48.682Z,44.34
2023-03-23T21:49:15.427Z,43.69
2023-03-23T21:51:43.467Z,43.96
2023-03-23T21:54:11.596Z,44.32
2023-03-23T21:56:38.403Z,44.74
2023-03-23T21:59:07.393Z,45.71
2023-03-23T22:01:36.592Z,46.64
2023-03-23T22:04:04.005Z,46.48
2023-03-23T22:06:31.366Z,47.05
2023-03-23T22:08:58.059Z,47.44
2023-03-23T22:11:27.662Z,47.77
2023-03-23T22:13:56.197Z,47.96
2023-03-23T22:16:24.306Z,48.12
2023-03-23T22:18:52.700Z,48.79
2023-03-23T22:21:22.016Z,49.13
2023-03-23T22:23:49.156Z,48.99
2023-03-23T22:26:16.637Z,49.20
2023-03-23T22:28:44.025Z,49.16
2023-03-23T22:31:18.437Z,49.14
2023-03-23T22:33:47.343Z,49.72
2023-03-23T22:36:14.611Z,50.05
2023-03-23T22:38:43.938Z,49.94
2023-03-23T22:41:16.489Z,50.28
2023-03-23T22:43:43.193Z,50.48
2023-03-23T22:46:09.840Z,50.84
2023-03-23T22:48:36.310Z,50.88
2023-03-23T22:51:03.659Z,51.00
2023-03-23T22:53:30.434Z,50.74
2023-03-23T22:55:57.971Z,50.21
2023-03-23T22:58:25.557Z,50.64
2023-03-23T23:00:58.450Z,50.76
2023-03-23T23:03:26.600Z,50.38
2023-03-23T23:05:54.352Z,50.07
2023-03-23T23:08:23.795Z,50.23
2023-03-23T23:10:52.456Z,50.24
2023-03-23T23:13:19.797Z,50.04
2023-03-23T23:15:49.616Z,49.91
2023-03-23T23:18:16.388Z,49.53
2023-03-23T23:20:43.374Z,49.74
2023-03-23T23:23:10.828Z,49.10
2023-03-23T23:25:38.543Z,49.34
2023-03-23T23:28:06.522Z,48.04
2023-03-23T23:30:34.571Z,47.57
2023-03-23T23:33:01.783Z,48.98
2023-03-23T23:35:28.501Z,49.69
2023-03-23T23:37:55.039Z,50.57
2023-03-23T23:40:21.535Z,50.90
2023-03-23T23:42:50.124Z,49.68
2023-03-23T23:45:17.364Z,50.36
2023-03-23T23:47:43.841Z,52.00
2023-03-23T23:50:11.936Z,52.56
2023-03-23T23:52:39.557Z,53.08
2023-03-23T23:55:07.430Z,53.66
2023-03-23T23:57:34.483Z,53.82
